Time;durP1;ratioP1;P1;durP2;ratioP2;P2;SDS_P1;SDS_P2;PMS_P1;PMS_P2;Temp;Humidity;BMP_temperature;BMP_pressure;BME280_temperature;BME280_humidity;BME280_pressure;Samples;Min_cycle;Max_cycle;Signal;HPM_P1;HPM_P2
2022/07/11 00:00:34;;;;;;;1.50;0.80;;;;;;;14.58;83.59;100737.72;2072869;28;20026;-61
2022/07/11 00:01:38;;;;;;;3.22;0.77;;;;;;;14.58;83.92;100734.22;2081059;28;20037;-61
2022/07/11 00:02:43;;;;;;;3.80;1.00;;;;;;;14.57;83.74;100733.41;2072420;28;20038;-61
2022/07/11 00:03:44;;;;;;;2.85;0.75;;;;;;;14.54;83.87;100731.31;2072056;28;20045;-61
2022/07/11 00:04:47;;;;;;;2.45;1.25;;;;;;;14.56;83.97;100731.81;2072229;28;20488;-61
2022/07/11 00:05:51;;;;;;;2.47;0.70;;;;;;;14.58;83.71;100737.72;2064169;28;20046;-61
2022/07/11 00:06:53;;;;;;;2.88;1.23;;;;;;;14.59;83.59;100738.50;2064391;28;20030;-61
2022/07/11 00:07:57;;;;;;;3.53;0.80;;;;;;;14.58;83.66;100737.72;2064696;28;20038;-61
2022/07/11 00:08:59;;;;;;;1.00;0.68;;;;;;;14.58;83.28;100740.41;2080419;28;20053;-61
2022/07/11 00:10:06;;;;;;;2.47;0.90;;;;;;;14.58;83.73;100735.00;2080265;28;20048;-61
2022/07/11 00:11:12;;;;;;;0.90;0.77;;;;;;;14.60;83.41;100738.22;2080829;28;20050;-61
2022/07/11 00:12:13;;;;;;;1.23;0.80;;;;;;;14.58;83.16;100734.22;2087374;28;20045;-61
2022/07/11 00:13:16;;;;;;;3.35;0.60;;;;;;;14.58;83.43;100735.00;2089155;28;20067;-61
2022/07/11 00:14:23;;;;;;;1.02;0.60;;;;;;;14.59;83.35;100736.59;2088981;28;20719;-61
2022/07/11 00:15:31;;;;;;;2.28;0.60;;;;;;;14.60;83.01;100732.81;2080268;28;20041;-61
2022/07/11 00:16:36;;;;;;;1.40;0.70;;;;;;;14.58;83.46;100735.00;2072509;28;20401;-61
2022/07/11 00:17:43;;;;;;;1.23;0.80;;;;;;;14.56;83.37;100739.94;2064044;28;20050;-61
2022/07/11 00:18:45;;;;;;;1.33;0.68;;;;;;;14.57;83.37;100738.03;2065575;28;20038;-61
2022/07/11 00:19:51;;;;;;;1.80;0.65;;;;;;;14.53;83.07;100731.59;2063901;28;20054;-61
2022/07/11 00:20:52;;;;;;;0.98;0.70;;;;;;;14.52;83.56;100730.78;2064539;28;20034;-61
2022/07/11 00:22:02;;;;;;;2.05;0.90;;;;;;;14.57;83.00;100733.41;2079822;28;20050;-61
2022/07/11 00:23:10;;;;;;;1.27;0.80;;;;;;;14.56;83.02;100739.09;2072122;28;20052;-61
2022/07/11 00:24:14;;;;;;;1.33;0.73;;;;;;;14.52;83.57;100741.63;2065340;28;20043;-61
2022/07/11 00:25:19;;;;;;;1.48;0.70;;;;;;;14.53;83.71;100737.84;2065141;28;20030;-61
2022/07/11 00:26:23;;;;;;;0.88;0.63;;;;;;;14.52;83.17;100735.41;2067613;28;20045;-61
2022/07/11 00:27:26;;;;;;;1.45;0.55;;;;;;;14.55;83.33;100737.50;2074798;28;20050;-61
2022/07/11 00:28:32;;;;;;;0.68;0.57;;;;;;;14.52;83.19;100733.50;2066717;28;20038;-61
2022/07/11 00:29:37;;;;;;;3.70;0.80;;;;;;;14.53;83.41;100726.19;2060242;28;20043;-61
2022/07/11 00:30:41;;;;;;;4.70;0.60;;;;;;;14.53;83.66;100731.59;2075056;28;20378;-60
2022/07/11 00:31:46;;;;;;;1.05;0.70;;;;;;;14.52;83.66;100728.09;2083892;28;20405;-61
2022/07/11 00:32:50;;;;;;;1.40;0.70;;;;;;;14.50;83.82;100724.03;2074578;28;20068;-61
2022/07/11 00:33:55;;;;;;;2.35;0.60;;;;;;;14.53;84.16;100727.00;2074906;28;20064;-60
2022/07/11 00:35:01;;;;;;;1.48;0.70;;;;;;;14.50;84.09;100727.56;2083486;28;20037;-61
2022/07/11 00:36:05;;;;;;;2.30;0.70;;;;;;;14.50;83.68;100727.56;2073996;28;20434;-60
2022/07/11 00:37:07;;;;;;;1.33;0.70;;;;;;;14.50;84.13;100726.75;2066750;28;20461;-60
2022/07/11 00:38:14;;;;;;;1.08;0.80;;;;;;;14.47;83.76;100725.47;2061836;28;20055;-61
2022/07/11 00:39:16;;;;;;;1.73;0.93;;;;;;;14.48;83.93;100724.38;2082878;28;20052;-61
2022/07/11 00:40:19;;;;;;;0.88;0.52;;;;;;;14.51;83.77;100734.63;2091129;28;20052;-60
2022/07/11 00:41:21;;;;;;;1.00;0.80;;;;;;;14.51;83.51;100728.41;2091186;28;20049;-61
2022/07/11 00:42:28;;;;;;;1.92;0.70;;;;;;;14.50;83.41;100730.28;2083471;28;20049;-60
2022/07/11 00:43:37;;;;;;;1.88;0.50;;;;;;;14.48;83.65;100732.47;2076051;28;20054;-60
2022/07/11 00:44:39;;;;;;;1.50;0.90;;;;;;;14.42;83.89;100724.75;2083437;28;20057;-61
2022/07/11 00:45:46;;;;;;;2.55;0.68;;;;;;;14.40;84.07;100733.16;2080388;28;20046;-60
2022/07/11 00:46:50;;;;;;;2.15;0.60;;;;;;;14.41;83.73;100729.38;2075641;28;20041;-61
2022/07/11 00:47:52;;;;;;;2.50;0.90;;;;;;;14.39;83.92;100723.44;2078982;28;20044;-61
2022/07/11 00:48:59;;;;;;;1.00;0.80;;;;;;;14.34;83.98;100727.06;2083304;28;20041;-61
2022/07/11 00:50:01;;;;;;;2.05;0.60;;;;;;;14.37;83.61;100734.59;2091949;28;20037;-59
2022/07/11 00:51:07;;;;;;;4.47;0.95;;;;;;;14.36;83.67;100732.16;2082435;28;20052;-59
2022/07/11 00:52:15;;;;;;;0.98;0.60;;;;;;;14.34;83.66;100731.66;2075864;28;20394;-61
2022/07/11 00:53:22;;;;;;;1.35;0.70;;;;;;;14.36;83.85;100729.47;2082863;28;20461;-60
2022/07/11 00:54:29;;;;;;;0.65;0.52;;;;;;;14.37;83.71;100731.06;2074855;28;20038;-60
2022/07/11 00:55:31;;;;;;;1.92;0.70;;;;;;;14.36;83.56;100732.97;2074567;28;20509;-60
2022/07/11 00:56:33;;;;;;;0.73;0.60;;;;;;;14.35;83.66;100730.56;2074804;28;20033;-60
2022/07/11 00:57:39;;;;;;;2.15;0.80;;;;;;;14.32;83.72;100725.75;2074755;28;20093;-60
2022/07/11 00:58:47;;;;;;;2.13;0.93;;;;;;;14.35;83.66;100730.56;2073793;28;20041;-59
2022/07/11 00:59:55;;;;;;;1.42;0.77;;;;;;;14.36;83.52;100732.16;2066459;28;20106;-60
2022/07/11 01:00:59;;;;;;;2.15;0.60;;;;;;;14.37;83.49;100726.47;2063032;28;20057;-60
2022/07/11 01:02:07;;;;;;;1.70;0.70;;;;;;;14.37;83.47;100731.06;2074050;28;20038;-59
2022/07/11 01:03:09;;;;;;;1.98;0.65;;;;;;;14.37;83.46;100718.34;2083796;28;20060;-60
2022/07/11 01:04:11;;;;;;;1.55;0.82;;;;;;;14.37;83.59;100733.75;2083348;28;20041;-60
2022/07/11 01:05:13;;;;;;;1.67;0.70;;;;;;;14.35;83.32;100731.38;2082407;28;20037;-61
2022/07/11 01:06:18;;;;;;;1.38;0.70;;;;;;;14.31;83.83;100730.38;2066457;28;20043;-60
2022/07/11 01:07:23;;;;;;;1.98;0.65;;;;;;;14.34;83.58;100718.13;2060512;28;20133;-60
2022/07/11 01:08:31;;;;;;;3.40;0.70;;;;;;;14.33;83.65;100724.66;2066528;28;20053;-61
2022/07/11 01:09:38;;;;;;;0.80;0.80;;;;;;;14.33;83.57;100721.94;2067376;28;20057;-61
2022/07/11 01:10:40;;;;;;;1.30;0.70;;;;;;;14.27;83.57;100710.41;2074640;28;20494;-61
2022/07/11 01:11:44;;;;;;;1.63;0.60;;;;;;;14.32;83.42;100714.94;2059268;28;20734;-61
2022/07/11 01:12:47;;;;;;;1.13;0.70;;;;;;;14.31;82.88;100716.84;2074349;28;20038;-61
2022/07/11 01:13:50;;;;;;;1.40;0.60;;;;;;;14.30;83.09;100717.13;2083068;28;20054;-61
2022/07/11 01:14:59;;;;;;;0.90;0.50;;;;;;;14.27;82.90;100720.44;2082987;28;20053;-61
2022/07/11 01:16:18;;;;;;;2.47;0.70;;;;;;;14.27;82.73;100712.31;2074655;28;20072;-60
2022/07/11 01:17:20;;;;;;;1.95;0.60;;;;;;;14.24;83.26;100707.50;2077194;28;20077;-61
2022/07/11 01:18:21;;;;;;;0.70;0.57;;;;;;;14.24;83.26;100702.91;2065555;28;20418;-61
2022/07/11 01:19:23;;;;;;;1.25;0.60;;;;;;;14.20;83.19;100699.19;2067408;28;20069;-61
2022/07/11 01:20:29;;;;;;;0.73;0.60;;;;;;;14.22;83.13;100704.28;2073770;28;20076;-60
2022/07/11 01:21:40;;;;;;;0.60;0.50;;;;;;;14.26;82.97;100706.13;2092372;28;20496;-60
2022/07/11 01:22:52;;;;;;;1.73;0.90;;;;;;;14.23;83.00;100711.31;2100017;28;20032;-60
2022/07/11 01:23:57;;;;;;;1.67;0.80;;;;;;;14.22;83.15;100707.00;2100114;28;20036;-60
2022/07/11 01:25:02;;;;;;;0.73;0.55;;;;;;;14.24;83.25;100710.22;2091055;28;20032;-60
2022/07/11 01:26:05;;;;;;;0.85;0.70;;;;;;;14.19;83.17;100704.91;2091520;28;20041;-61
2022/07/11 01:27:09;;;;;;;1.00;0.70;;;;;;;14.19;82.90;100704.91;2089953;28;20052;-61
2022/07/11 01:28:13;;;;;;;1.95;1.13;;;;;;;14.19;82.68;100694.09;2074680;28;20038;-61
2022/07/11 01:29:16;;;;;;;0.65;0.60;;;;;;;14.21;82.53;100705.41;2067565;28;20038;-60
2022/07/11 01:30:19;;;;;;;2.70;0.80;;;;;;;14.19;82.51;100702.22;2090995;28;20056;-60
2022/07/11 01:31:21;;;;;;;2.63;0.73;;;;;;;14.18;82.47;100695.97;2084219;28;20041;-60
2022/07/11 01:32:24;;;;;;;0.80;0.57;;;;;;;14.16;82.92;100692.00;2074902;28;20045;-61
2022/07/11 01:33:26;;;;;;;1.33;0.70;;;;;;;14.16;83.11;100697.41;2083052;28;20033;-60
2022/07/11 01:34:29;;;;;;;1.25;0.70;;;;;;;14.14;83.02;100692.28;2082868;28;20041;-61
2022/07/11 01:35:30;;;;;;;1.48;0.65;;;;;;;14.17;83.13;100688.19;2074579;28;20524;-61
2022/07/11 01:36:35;;;;;;;2.78;0.82;;;;;;;14.19;82.94;100694.09;2082645;28;20544;-61
2022/07/11 01:37:36;;;;;;;1.17;0.50;;;;;;;14.19;82.95;100688.69;2072504;28;20454;-61
2022/07/11 01:38:41;;;;;;;1.25;0.70;;;;;;;14.19;83.13;100686.00;2065272;28;20061;-61
2022/07/11 01:39:43;;;;;;;1.75;0.70;;;;;;;14.19;83.02;100689.50;2065644;28;20073;-61
2022/07/11 01:40:46;;;;;;;2.38;0.80;;;;;;;14.18;82.75;100687.88;2073636;28;20054;-61
2022/07/11 01:41:47;;;;;;;1.20;0.50;;;;;;;14.15;82.96;100691.16;2081658;28;20064;-61
2022/07/11 01:42:53;;;;;;;3.35;0.70;;;;;;;14.15;82.76;100688.47;2073540;28;20044;-61
2022/07/11 01:44:02;;;;;;;2.28;0.85;;;;;;;14.18;82.96;100690.56;2067081;28;20045;-61
2022/07/11 01:45:09;;;;;;;;;;;;;;;14.17;82.85;100697.09;2082844;28;20048;-60
2022/07/11 01:46:12;;;;;;;0.98;0.60;;;;;;;14.17;83.13;100690.88;2082509;28;19912;-60
2022/07/11 01:47:13;;;;;;;0.95;0.60;;;;;;;14.11;82.97;100690.97;2081552;28;20092;-61
2022/07/11 01:48:20;;;;;;;1.55;0.50;;;;;;;14.12;83.31;100684.47;2081125;28;20093;-61
2022/07/11 01:49:21;;;;;;;2.47;0.60;;;;;;;14.07;83.04;100687.25;2089674;28;20052;-61
2022/07/11 01:50:24;;;;;;;1.40;0.47;;;;;;;14.08;83.02;100693.47;2089448;28;20045;-61
2022/07/11 01:51:28;;;;;;;1.00;0.57;;;;;;;14.08;83.02;100686.16;2081455;28;20040;-61
2022/07/11 01:52:32;;;;;;;2.08;0.60;;;;;;;14.08;82.89;100680.75;2073777;28;20409;-61
2022/07/11 01:53:35;;;;;;;1.42;0.60;;;;;;;14.07;82.73;100687.25;2082049;28;20453;-62
2022/07/11 01:54:37;;;;;;;1.35;0.50;;;;;;;14.07;82.83;100686.47;2089308;28;20061;-61
2022/07/11 01:55:47;;;;;;;2.08;0.50;;;;;;;14.02;82.81;100687.34;2089115;28;20051;-61
2022/07/11 01:56:51;;;;;;;0.77;0.55;;;;;;;14.06;82.92;100691.06;2080413;28;20033;-61
2022/07/11 01:57:54;;;;;;;0.70;0.40;;;;;;;14.04;83.04;100693.28;2073645;28;20048;-61
2022/07/11 01:58:56;;;;;;;2.38;0.50;;;;;;;14.03;82.97;100691.69;2073363;28;20037;-62
2022/07/11 02:00:03;;;;;;;1.02;0.65;;;;;;;14.05;82.83;100684.03;2073128;28;20053;-61
2022/07/11 02:01:06;;;;;;;1.08;0.60;;;;;;;14.04;82.84;100693.28;2086828;28;20039;-61
2022/07/11 02:02:10;;;;;;;1.58;0.60;;;;;;;14.01;82.90;100704.69;2090196;28;20492;-60
2022/07/11 02:03:13;;;;;;;0.70;0.60;;;;;;;14.02;82.81;100700.06;2090277;28;20033;-61
2022/07/11 02:04:23;;;;;;;0.98;0.60;;;;;;;14.03;82.90;100701.66;2080564;28;20052;-61
2022/07/11 02:05:27;;;;;;;0.77;0.50;;;;;;;14.04;82.79;100708.69;2082782;28;20045;-61
2022/07/11 02:06:32;;;;;;;1.52;0.50;;;;;;;14.00;82.89;100713.09;2090114;28;20037;-62
2022/07/11 02:09:00;;;;;;;0.65;0.50;;;;;;;13.98;83.21;100715.28;2065863;28;20042;-62
2022/07/11 02:10:04;;;;;;;2.35;0.73;;;;;;;13.96;83.48;100718.28;2058002;28;20499;-60
2022/07/11 02:11:10;;;;;;;1.83;0.50;;;;;;;13.99;83.38;100728.50;2072994;28;20050;-60
2022/07/11 02:12:11;;;;;;;1.98;0.70;;;;;;;13.98;83.38;100721.50;2085021;28;20681;-60
2022/07/11 02:13:19;;;;;;;0.77;0.60;;;;;;;14.01;83.52;100723.59;2089240;28;20041;-60
2022/07/11 02:14:21;;;;;;;0.52;0.50;;;;;;;14.02;83.40;100727.91;2089319;28;20047;-60
2022/07/11 02:15:32;;;;;;;1.17;0.63;;;;;;;14.04;83.62;100720.31;2088711;28;20049;-60
2022/07/11 02:16:34;;;;;;;2.38;0.60;;;;;;;14.07;83.31;100725.13;2080782;28;20060;-60
2022/07/11 02:17:36;;;;;;;1.17;0.60;;;;;;;14.03;83.75;100717.88;2080947;28;20050;-60
2022/07/11 02:18:38;;;;;;;0.75;0.50;;;;;;;14.05;83.89;100724.59;2073081;28;20045;-60
2022/07/11 02:19:44;;;;;;;1.33;0.50;;;;;;;14.09;83.31;100722.09;2073100;28;20061;-60
2022/07/11 02:20:48;;;;;;;0.90;0.52;;;;;;;14.11;83.30;100723.41;2073138;28;20038;-60
2022/07/11 02:21:51;;;;;;;0.82;0.70;;;;;;;14.10;82.89;100729.13;2079165;28;20401;-61
2022/07/11 02:22:53;;;;;;;2.50;0.65;;;;;;;14.10;83.11;100729.94;2089262;28;20049;-60
2022/07/11 02:23:58;;;;;;;1.70;0.60;;;;;;;14.09;82.86;100728.34;2081141;28;20049;-60
2022/07/11 02:25:05;;;;;;;0.63;0.60;;;;;;;14.05;82.72;100724.59;2074549;28;20053;-60
2022/07/11 02:26:07;;;;;;;1.55;0.55;;;;;;;14.08;82.66;100726.72;2081781;28;20029;-59
2022/07/11 02:27:08;;;;;;;3.55;0.95;;;;;;;14.10;82.34;100729.13;2089329;28;20037;-60
2022/07/11 02:28:12;;;;;;;1.58;0.60;;;;;;;14.06;82.65;100723.53;2088483;28;20050;-60
2022/07/11 02:29:14;;;;;;;1.20;0.50;;;;;;;14.04;82.78;100720.31;2080702;28;20045;-60
2022/07/11 02:30:15;;;;;;;1.98;0.63;;;;;;;14.03;83.18;100728.69;2088276;28;20417;-60
2022/07/11 02:31:17;;;;;;;1.27;0.60;;;;;;;14.00;83.64;100724.72;2091784;28;20044;-60
2022/07/11 02:32:26;;;;;;;0.90;0.60;;;;;;;14.00;83.51;100722.00;2072946;28;20041;-60
2022/07/11 02:33:30;;;;;;;3.13;0.70;;;;;;;14.02;83.33;100719.78;2067195;28;20038;-60
2022/07/11 02:34:35;;;;;;;0.50;0.50;;;;;;;14.00;83.52;100722.00;2070115;28;20065;-60
2022/07/11 02:35:38;;;;;;;4.93;0.80;;;;;;;13.97;83.90;100714.50;2065374;28;20042;-60
2022/07/11 02:36:43;;;;;;;1.00;0.57;;;;;;;13.98;84.34;100715.28;2073255;28;20054;-60
2022/07/11 02:37:48;;;;;;;1.50;0.30;;;;;;;14.00;84.45;100721.22;2080786;28;20053;-59
2022/07/11 02:38:52;;;;;;;2.35;0.38;;;;;;;14.00;84.34;100719.31;2064829;28;20510;-59
2022/07/11 02:39:57;;;;;;;0.88;0.50;;;;;;;14.00;84.31;100716.59;2066386;28;20486;-59
2022/07/11 02:41:00;;;;;;;1.77;0.60;;;;;;;13.96;84.29;100712.88;2081237;28;20056;-60
2022/07/11 02:42:02;;;;;;;1.00;0.60;;;;;;;13.97;84.65;100716.41;2084648;28;20042;-60
2022/07/11 02:43:05;;;;;;;1.35;0.52;;;;;;;13.97;84.16;100714.50;2081159;28;20041;-59
2022/07/11 02:44:07;;;;;;;0.82;0.70;;;;;;;14.00;83.63;100724.72;2056983;28;20063;-59
2022/07/11 02:45:11;;;;;;;1.35;0.70;;;;;;;13.98;83.86;100726.91;2057404;28;20050;-60
2022/07/11 02:46:16;;;;;;;0.60;0.50;;;;;;;13.96;84.04;100725.59;2081704;28;20041;-60
2022/07/11 02:47:18;;;;;;;1.25;0.40;;;;;;;13.93;83.53;100726.97;2072931;28;20049;-60
2022/07/11 02:48:20;;;;;;;0.82;0.60;;;;;;;13.91;82.98;100727.28;2065025;28;20038;-60
2022/07/11 02:49:23;;;;;;;0.90;0.50;;;;;;;13.91;82.89;100731.91;2080520;28;20496;-61
2022/07/11 02:50:25;;;;;;;0.68;0.40;;;;;;;13.90;82.29;100725.69;2089748;28;20060;-60
2022/07/11 02:51:28;;;;;;;2.92;0.63;;;;;;;13.87;82.13;100736.25;2089943;28;20037;-60
2022/07/11 02:52:33;;;;;;;0.65;0.55;;;;;;;13.90;82.18;100732.97;2080564;28;20041;-61
2022/07/11 02:53:36;;;;;;;1.05;0.40;;;;;;;13.88;82.13;100727.88;2067587;28;20049;-60
2022/07/11 02:54:44;;;;;;;0.52;0.50;;;;;;;13.84;82.52;100728.75;2073476;28;20038;-61
2022/07/11 02:55:48;;;;;;;0.30;0.30;;;;;;;13.88;82.64;100729.78;2080765;28;20053;-60
2022/07/11 02:56:51;;;;;;;0.77;0.52;;;;;;;13.89;82.82;100728.69;2080987;28;20351;-60
2022/07/11 02:57:53;;;;;;;0.70;0.45;;;;;;;13.89;82.94;100728.69;2072419;28;20045;-60
2022/07/11 02:58:57;;;;;;;1.40;0.50;;;;;;;13.91;83.09;100730.00;2080985;28;20415;-61
2022/07/11 03:00:00;;;;;;;0.50;0.50;;;;;;;13.88;82.82;100729.78;2089123;28;20136;-60
2022/07/11 03:01:03;;;;;;;0.45;0.40;;;;;;;13.88;83.28;100727.88;2083547;28;20056;-60
2022/07/11 03:02:10;;;;;;;3.10;0.80;;;;;;;13.93;83.35;100726.97;2081250;28;20042;-60
2022/07/11 03:03:12;;;;;;;1.90;0.60;;;;;;;13.94;83.53;100731.31;2089770;28;20401;-60
2022/07/11 03:04:17;;;;;;;0.40;0.40;;;;;;;14.01;83.34;100726.31;2080828;28;20029;-60
2022/07/11 03:05:21;;;;;;;0.60;0.52;;;;;;;14.01;83.46;100729.00;2073194;28;20045;-60
2022/07/11 03:06:25;;;;;;;2.63;0.50;;;;;;;13.96;83.55;100729.09;2081441;28;20072;-60
2022/07/11 03:07:29;;;;;;;5.07;0.70;;;;;;;13.92;84.29;100728.09;2071822;28;20046;-61
2022/07/11 03:08:31;;;;;;;0.95;0.60;;;;;;;13.91;84.49;100726.50;2067784;28;20034;-60
2022/07/11 03:09:35;;;;;;;1.42;0.50;;;;;;;13.91;84.62;100726.50;2072853;28;20153;-60
2022/07/11 03:10:38;;;;;;;0.70;0.52;;;;;;;13.97;84.04;100724.50;2080704;28;20050;-60
2022/07/11 03:11:43;;;;;;;0.55;0.50;;;;;;;13.90;83.67;100725.69;2081105;28;20054;-61
2022/07/11 03:12:45;;;;;;;0.60;0.50;;;;;;;13.94;83.57;100722.41;2072184;28;20053;-61
2022/07/11 03:13:48;;;;;;;0.60;0.50;;;;;;;13.96;83.29;100723.69;2072686;28;20057;-61
2022/07/11 03:14:56;;;;;;;0.57;0.52;;;;;;;13.99;83.33;100723.09;2073387;28;20049;-61
2022/07/11 03:16:01;;;;;;;5.18;0.68;;;;;;;13.95;83.10;100726.69;2082034;28;20046;-61
2022/07/11 03:17:05;;;;;;;1.42;0.57;;;;;;;13.95;83.40;100721.28;2079886;28;20049;-60
2022/07/11 03:18:07;;;;;;;3.15;0.60;;;;;;;13.94;83.77;100731.31;2081399;28;20501;-60
2022/07/11 03:19:14;;;;;;;0.95;0.80;;;;;;;13.95;83.76;100741.00;2072674;28;20038;-61
2022/07/11 03:20:21;;;;;;;1.77;0.60;;;;;;;13.94;83.66;100742.13;2067727;28;20038;-61
2022/07/11 03:21:25;;;;;;;1.50;0.77;;;;;;;13.95;83.38;100741.00;2067740;28;20045;-61
2022/07/11 03:22:32;;;;;;;1.23;0.73;;;;;;;13.91;83.76;100748.13;2074149;28;20030;-61
2022/07/11 03:23:34;;;;;;;1.17;0.90;;;;;;;13.90;83.58;100746.50;2089651;28;20036;-61
2022/07/11 03:24:38;;;;;;;2.13;0.70;;;;;;;13.86;84.00;100742.78;2080814;28;20413;-61
2022/07/11 03:25:43;;;;;;;2.40;0.60;;;;;;;13.86;83.98;100750.88;2082818;28;20053;-61
2022/07/11 03:26:49;;;;;;;1.65;0.63;;;;;;;13.86;84.03;100738.16;2072658;28;20418;-61
2022/07/11 03:27:54;;;;;;;2.20;0.73;;;;;;;13.87;84.28;100742.50;2073749;28;20475;-61
2022/07/11 03:28:57;;;;;;;1.77;0.80;;;;;;;13.93;84.10;100750.50;2088811;28;20109;-61
2022/07/11 03:30:05;;;;;;;0.50;0.50;;;;;;;13.92;84.28;100741.59;2088765;28;20057;-61
2022/07/11 03:31:07;;;;;;;2.45;0.80;;;;;;;13.93;84.51;100751.31;2080027;28;20386;-60
2022/07/11 03:32:09;;;;;;;1.30;0.57;;;;;;;13.91;84.47;100740.81;2072355;28;20113;-61
2022/07/11 03:33:17;;;;;;;1.60;0.77;;;;;;;13.91;84.69;100753.53;2056370;28;20113;-61
2022/07/11 03:34:23;;;;;;;1.13;0.70;;;;;;;13.90;84.31;100746.50;2058431;28;20065;-61
2022/07/11 03:35:41;;;;;;;3.13;0.60;;;;;;;13.86;84.38;100746.28;2065287;28;20034;-61
2022/07/11 03:36:48;;;;;;;0.80;0.60;;;;;;;13.94;84.31;100757.53;2067278;28;20054;-61
2022/07/11 03:37:51;;;;;;;0.93;0.60;;;;;;;13.92;84.20;100752.41;2057371;28;20050;-61
2022/07/11 03:38:53;;;;;;;0.57;0.50;;;;;;;13.94;84.18;100760.25;2056809;28;20049;-61
2022/07/11 03:39:56;;;;;;;0.52;0.40;;;;;;;13.92;84.28;100749.72;2072265;28;20041;-61
2022/07/11 03:40:58;;;;;;;1.85;0.70;;;;;;;13.93;83.98;100743.19;2072453;28;20046;-61
2022/07/11 03:42:01;;;;;;;1.85;0.55;;;;;;;13.94;84.12;100750.22;2073316;28;20535;-60
2022/07/11 03:43:05;;;;;;;0.40;0.40;;;;;;;13.95;84.11;100754.53;2080981;28;20048;-61
2022/07/11 03:44:10;;;;;;;0.85;0.45;;;;;;;13.98;84.24;100743.13;2088208;28;20503;-61
2022/07/11 03:45:14;;;;;;;5.25;0.82;;;;;;;14.03;84.12;100748.44;2064240;28;20034;-61
2022/07/11 03:46:17;;;;;;;1.00;0.63;;;;;;;14.10;84.07;100746.16;2057504;28;20533;-61
2022/07/11 03:47:22;;;;;;;4.30;0.60;;;;;;;14.21;83.72;100748.66;2071839;28;20053;-61
2022/07/11 03:48:24;;;;;;;1.00;0.75;;;;;;;14.24;83.60;100739.97;2080342;28;20041;-61
2022/07/11 03:49:30;;;;;;;1.10;0.60;;;;;;;14.23;83.24;100749.19;2075182;28;20402;-61
2022/07/11 03:50:36;;;;;;;2.03;0.50;;;;;;;14.22;83.40;100742.16;2073045;28;20052;-62
2022/07/11 03:51:40;;;;;;;0.40;0.30;;;;;;;14.25;82.92;100741.56;2081130;28;20025;-61
2022/07/11 03:52:44;;;;;;;1.60;0.57;;;;;;;14.23;82.96;100743.78;2080676;28;20378;-62
2022/07/11 03:53:53;;;;;;;1.02;0.50;;;;;;;14.20;82.93;100733.56;2064989;28;20061;-61
2022/07/11 03:54:54;;;;;;;0.60;0.50;;;;;;;14.26;83.11;100737.78;2072977;28;20084;-61
2022/07/11 03:55:58;;;;;;;1.35;0.45;;;;;;;14.31;82.49;100741.19;2079958;28;20041;-61
2022/07/11 03:56:59;;;;;;;0.30;0.30;;;;;;;14.34;81.95;100742.47;2080956;28;20045;-61
2022/07/11 03:58:04;;;;;;;0.90;0.63;;;;;;;14.41;81.86;100737.50;2088928;28;20052;-61
2022/07/11 03:59:09;;;;;;;2.08;0.47;;;;;;;14.68;81.57;100735.91;2088342;28;20052;-61
2022/07/11 04:00:19;;;;;;;0.40;0.40;;;;;;;14.90;80.86;100738.69;2079894;28;20053;-61
2022/07/11 04:01:25;;;;;;;1.10;0.50;;;;;;;15.23;80.17;100742.06;2073449;28;20050;-61
2022/07/11 04:02:30;;;;;;;2.40;0.50;;;;;;;15.42;79.30;100736.47;2073787;28;20521;-61
2022/07/11 04:03:32;;;;;;;0.40;0.40;;;;;;;15.68;78.48;100733.19;2071775;28;20053;-61
2022/07/11 04:04:35;;;;;;;0.47;0.40;;;;;;;15.75;77.70;100733.56;2080917;28;20042;-61
2022/07/11 04:05:38;;;;;;;0.50;0.47;;;;;;;15.72;77.70;100726.03;2089263;28;20041;-61
2022/07/11 04:06:42;;;;;;;1.35;0.40;;;;;;;15.65;77.09;100733.78;2080018;28;20417;-61
2022/07/11 04:07:44;;;;;;;0.60;0.40;;;;;;;15.54;77.33;100733.19;2072297;28;20068;-61
2022/07/11 04:08:46;;;;;;;0.95;0.40;;;;;;;15.48;77.98;100734.47;2058834;28;20407;-61
2022/07/11 04:09:52;;;;;;;0.70;0.50;;;;;;;15.47;78.18;100739.06;2072271;28;20038;-61
2022/07/11 04:10:56;;;;;;;0.75;0.52;;;;;;;15.66;78.01;100733.44;2072508;28;20038;-61
2022/07/11 04:11:58;;;;;;;0.45;0.30;;;;;;;15.84;77.17;100736.31;2073933;28;20503;-61
2022/07/11 04:13:03;;;;;;;0.40;0.40;;;;;;;15.85;76.74;100735.22;2088339;28;20045;-61
2022/07/11 04:14:05;;;;;;;0.80;0.45;;;;;;;15.81;76.57;100736.94;2080526;28;20462;-61
2022/07/11 04:15:11;;;;;;;1.95;0.52;;;;;;;15.82;76.52;100742.03;2072447;28;20057;-61
2022/07/11 04:16:20;;;;;;;0.52;0.40;;;;;;;16.05;75.69;100747.47;2081366;28;20049;-61
2022/07/11 04:17:22;;;;;;;2.90;0.50;;;;;;;16.21;75.03;100740.53;2088759;28;20060;-60
2022/07/11 04:18:24;;;;;;;0.50;0.40;;;;;;;16.33;74.99;100748.91;2089409;28;20409;-69
2022/07/11 04:19:27;;;;;;;0.50;0.50;;;;;;;16.48;75.02;100741.44;2081793;28;20045;-69
2022/07/11 04:20:30;;;;;;;0.63;0.40;;;;;;;16.53;74.61;100741.31;2079791;28;20037;-69
2022/07/11 04:21:35;;;;;;;0.60;0.32;;;;;;;16.47;75.08;100742.56;2066677;28;20034;-69
2022/07/11 04:22:40;;;;;;;0.40;0.40;;;;;;;16.39;74.97;100736.78;2063549;28;20035;-68
2022/07/11 04:23:43;;;;;;;0.60;0.40;;;;;;;16.33;74.75;100743.47;2073094;28;20046;-68
2022/07/11 04:24:45;;;;;;;1.23;0.30;;;;;;;16.28;74.70;100750.94;2064108;28;20038;-69
2022/07/11 04:25:50;;;;;;;0.93;0.40;;;;;;;16.23;74.75;100741.00;2062093;28;20050;-68
2022/07/11 04:26:53;;;;;;;3.47;0.50;;;;;;;16.35;74.68;100735.78;2071286;28;20034;-68
2022/07/11 04:27:58;;;;;;;0.70;0.43;;;;;;;16.56;74.28;100740.69;2089237;28;20049;-68
2022/07/11 04:29:03;;;;;;;0.55;0.50;;;;;;;16.53;74.25;100742.09;2086456;28;20041;-69
2022/07/11 04:30:07;;;;;;;0.40;0.40;;;;;;;16.48;74.23;100744.94;2080349;28;20048;-68
2022/07/11 04:31:10;;;;;;;0.40;0.40;;;;;;;16.42;74.19;100747.03;2074914;28;20034;-68
2022/07/11 04:32:14;;;;;;;1.20;0.50;;;;;;;16.40;73.88;100748.44;2072454;28;20030;-69
2022/07/11 04:33:17;;;;;;;1.15;0.50;;;;;;;16.35;73.57;100749.38;2064221;28;20525;-69
2022/07/11 04:34:23;;;;;;;0.30;0.30;;;;;;;16.28;73.06;100751.72;2071369;28;20045;-69
2022/07/11 04:35:30;;;;;;;1.75;0.93;;;;;;;16.21;73.51;100762.22;2080547;28;20045;-70
2022/07/11 04:36:32;;;;;;;1.13;0.40;;;;;;;16.08;73.32;100754.97;2072030;28;20058;-69
2022/07/11 04:37:37;;;;;;;4.75;0.70;;;;;;;16.05;73.65;100763.75;2048531;28;20050;-68
2022/07/11 04:38:43;;;;;;;0.30;0.30;;;;;;;16.02;73.71;100758.94;2063782;28;20603;-68
2022/07/11 04:39:48;;;;;;;1.42;0.50;;;;;;;15.98;73.87;100770.41;2079578;28;20053;-70
2022/07/11 04:40:51;;;;;;;0.55;0.30;;;;;;;15.96;73.82;100763.69;2071989;28;20054;-69
2022/07/11 04:42:00;;;;;;;0.38;0.38;;;;;;;15.95;74.05;100759.34;2071185;28;20050;-70
2022/07/11 04:43:04;;;;;;;2.40;0.40;;;;;;;15.89;74.18;100755.16;2072218;28;20121;-69
2022/07/11 04:44:08;;;;;;;0.65;0.40;;;;;;;15.86;74.21;100761.22;2079739;28;20052;-66
2022/07/11 04:45:10;;;;;;;1.65;0.40;;;;;;;15.86;74.42;100761.22;2087609;28;20041;-65
2022/07/11 04:46:20;;;;;;;0.52;0.40;;;;;;;15.82;74.42;100760.22;2078670;28;20052;-65
2022/07/11 04:47:22;;;;;;;2.30;0.35;;;;;;;15.78;74.54;100754.63;2071201;28;20037;-65
2022/07/11 04:48:23;;;;;;;1.50;1.00;;;;;;;15.77;74.78;100763.09;2071140;28;20598;-65
2022/07/11 04:49:26;;;;;;;1.75;0.50;;;;;;;15.74;74.93;100764.50;2079007;28;20405;-64
2022/07/11 04:50:29;;;;;;;0.85;0.60;;;;;;;15.65;75.18;100763.59;2078590;28;20166;-65
2022/07/11 04:51:36;;;;;;;0.68;0.50;;;;;;;15.60;75.34;100764.50;2071666;28;20529;-65
2022/07/11 04:52:38;;;;;;;1.00;0.50;;;;;;;15.57;75.58;100767.03;2053857;28;20042;-65
2022/07/11 04:53:41;;;;;;;0.85;0.40;;;;;;;15.51;75.31;100756.31;2062147;28;20050;-65
2022/07/11 04:54:45;;;;;;;0.40;0.35;;;;;;;15.50;75.44;100767.44;2070849;28;20534;-65
2022/07/11 04:55:49;;;;;;;1.00;0.50;;;;;;;15.42;75.91;100769.00;2054801;28;20071;-65
2022/07/11 04:56:51;;;;;;;0.63;0.43;;;;;;;15.34;76.15;100772.41;2055574;28;20054;-64
2022/07/11 04:57:57;;;;;;;0.77;0.50;;;;;;;15.35;75.95;100774.00;2087659;28;20040;-64
2022/07/11 04:59:04;;;;;;;0.77;0.40;;;;;;;15.33;76.39;100773.53;2087662;28;20045;-65
2022/07/11 05:00:08;;;;;;;1.10;0.50;;;;;;;15.35;76.37;100776.72;2078779;28;20041;-66